Impacts METAR Board
IDs:

KPDX - Portland Intl Arpt, OR, US

Updated at: 1000 UTC 23 May 2018
Potential Impact None Slight Moderate High
Time 22/22Z 22/23Z 23/00Z 23/01Z 23/02Z 23/03Z 23/04Z 23/05Z 23/06Z 23/07Z 23/08Z 23/09Z 23/10Z
Temp82 84 85 85 83 79 75 71 69 67 63 63 62
Dewpt51 54 54 53 53 56 56 55 54 54 54 53 52
Altim29.80 29.77 29.75 29.75 29.74 29.74 29.75 29.77 29.78 29.78 29.78 29.78 29.79
VIS10 10 10 10 10 10 10 10 10 10 10 10 10
CIG-- -- -- -- -- -- -- -- -- -- -- -- --
CoverFEWFEWFEWFEWFEWFEWFEWFEWCLRCLRFEWCLRCLR
FltCatVFRVFRVFRVFRVFRVFRVFRVFRVFRVFRVFRVFRVFR
WX--------------------------
WDir30029032034033034032032034032033000
WSpd8 10 11 7 7 7 9 8 6 6 4 0 0
WGst-- -- 15 -- 15 15 -- 16 -- -- -- -- --
Raw hourly METARs
KPDX 222153Z 30008KT 10SM FEW080 28/11 A2980 RMK AO2 SLP090 T02780106
KPDX 222253Z 29010KT 10SM FEW070 29/12 A2977 RMK AO2 SLP081 T02890122
KPDX 222353Z 32011G15KT 10SM FEW070 29/12 A2975 RMK AO2 SLP075 T02940122 10300 20194 56024
KPDX 230053Z 34007KT 10SM FEW070 29/12 A2975 RMK AO2 SLP073 T02940117
KPDX 230153Z 33007G15KT 10SM FEW070 FEW250 28/12 A2974 RMK AO2 SLP070 T02830117
KPDX 230253Z 34007G15KT 10SM FEW075 26/13 A2974 RMK AO2 SLP071 T02610133 55004
KPDX 230353Z 32009KT 10SM FEW075 FEW250 24/13 A2975 RMK AO2 SLP074 T02390133
KPDX 230453Z 32008G16KT 10SM FEW075 22/13 A2977 RMK AO2 SLP079 T02170128
KPDX 230553Z 34006KT 10SM CLR 21/12 A2978 RMK AO2 SLP081 T02060122 10300 20206 51010
KPDX 230653Z 32006KT 10SM CLR 19/12 A2978 RMK AO2 SLP083 T01940122
KPDX 230753Z 33004KT 10SM FEW075 17/12 A2978 RMK AO2 SLP083 T01720122 403000122
KPDX 230853Z 00000KT 10SM CLR 17/12 A2978 RMK AO2 SLP083 T01720117 51002
KPDX 230953Z 00000KT 10SM CLR 17/11 A2979 RMK AO2 SLP085 T01670111



Page loaded:  10:57 UTC  |   03:57 AM Pacific  |   04:57 AM Mountain  |   05:57 AM Central  |   06:57 AM Eastern

 

ADVISORIES

FORECASTS

FORECASTS

OBSERVATIONS

USER TOOLS

ABOUT US